Time;durP1;ratioP1;P1;durP2;ratioP2;P2;SDS_P1;SDS_P2;PMS_P1;PMS_P2;Temp;Humidity;BMP_temperature;BMP_pressure;BME280_temperature;BME280_humidity;BME280_pressure;Samples;Min_cycle;Max_cycle;Signal;HPM_P1;HPM_P2
2022/12/10 00:01:07;;;;;;;23.83;12.85;;;;;;;;;;5068361;28;20148;-73
2022/12/10 00:03:33;;;;;;;23.50;13.32;;;;;;;;;;5068567;28;20017;-71
2022/12/10 00:06:03;;;;;;;25.33;13.05;;;;;;;;;;5068228;28;20021;-70
2022/12/10 00:08:29;;;;;;;23.45;13.73;;;;;;;;;;5068368;28;20037;-72
2022/12/10 00:10:55;;;;;;;24.67;13.55;;;;;;;;;;5068317;28;20086;-72
2022/12/10 00:13:20;;;;;;;25.50;13.43;;;;;;;;;;5067789;28;20064;-71
2022/12/10 00:15:45;;;;;;;25.48;13.75;;;;;;;;;;5068568;28;20013;-71
2022/12/10 00:18:11;;;;;;;25.38;14.20;;;;;;;;;;5067861;28;20104;-71
2022/12/10 00:20:37;;;;;;;26.60;14.73;;;;;;;;;;5068026;28;20040;-70
2022/12/10 00:23:03;;;;;;;28.75;14.60;;;;;;;;;;5070178;28;20036;-70
2022/12/10 00:25:28;;;;;;;27.92;14.90;;;;;;;;;;5071905;28;20028;-71
2022/12/10 00:27:54;;;;;;;26.60;14.48;;;;;;;;;;5071395;28;20551;-71
2022/12/10 00:30:19;;;;;;;29.63;15.73;;;;;;;;;;5071806;28;20028;-71
2022/12/10 00:32:44;;;;;;;29.85;15.77;;;;;;;;;;5071780;28;20035;-71
2022/12/10 00:35:10;;;;;;;28.48;14.60;;;;;;;;;;5071401;28;20264;-71
2022/12/10 00:37:35;;;;;;;26.88;15.27;;;;;;;;;;5071299;28;20020;-71
2022/12/10 00:40:01;;;;;;;28.98;15.75;;;;;;;;;;5071152;28;20033;-71
2022/12/10 00:42:26;;;;;;;28.15;14.90;;;;;;;;;;5071619;28;20024;-71
2022/12/10 00:44:52;;;;;;;25.63;14.25;;;;;;;;;;5071439;28;20108;-71
2022/12/10 00:47:17;;;;;;;28.10;14.50;;;;;;;;;;5071378;28;20029;-71
2022/12/10 00:49:42;;;;;;;31.70;15.25;;;;;;;;;;5071162;28;20028;-71
2022/12/10 00:52:08;;;;;;;26.08;14.75;;;;;;;;;;5071256;28;20050;-70
2022/12/10 00:54:33;;;;;;;24.70;13.95;;;;;;;;;;5074589;28;20025;-72
2022/12/10 00:56:58;;;;;;;24.88;13.68;;;;;;;;;;5082807;28;20028;-73
2022/12/10 00:59:24;;;;;;;22.73;13.35;;;;;;;;;;5081570;28;20070;-74
2022/12/10 01:01:49;;;;;;;21.15;12.32;;;;;;;;;;5081842;28;20331;-74
2022/12/10 01:04:17;;;;;;;23.35;12.95;;;;;;;;;;5081074;28;20036;-74
2022/12/10 01:06:48;;;;;;;22.17;12.80;;;;;;;;;;5071468;28;20103;-71
2022/12/10 01:09:17;;;;;;;22.88;13.55;;;;;;;;;;5070539;28;20112;-71
2022/12/10 01:11:45;;;;;;;26.23;14.68;;;;;;;;;;5071181;28;20116;-71
2022/12/10 01:14:14;;;;;;;27.02;15.57;;;;;;;;;;5070902;28;20051;-70
2022/12/10 01:16:40;;;;;;;29.50;15.52;;;;;;;;;;5071051;28;20032;-70
2022/12/10 01:19:05;;;;;;;28.63;14.90;;;;;;;;;;5070649;28;20036;-70
2022/12/10 01:21:31;;;;;;;28.90;15.02;;;;;;;;;;5069810;28;20032;-71
2022/12/10 01:23:58;;;;;;;26.50;14.93;;;;;;;;;;5070598;28;20067;-70
2022/12/10 01:26:26;;;;;;;27.08;15.07;;;;;;;;;;5070787;28;20476;-70
2022/12/10 01:28:53;;;;;;;26.10;14.48;;;;;;;;;;5070061;28;20031;-70
2022/12/10 01:31:22;;;;;;;25.58;14.38;;;;;;;;;;5070770;28;20017;-70
2022/12/10 01:33:48;;;;;;;25.48;13.60;;;;;;;;;;5069642;28;20036;-70
2022/12/10 01:36:19;;;;;;;23.15;12.93;;;;;;;;;;5070742;28;20044;-70
2022/12/10 01:38:45;;;;;;;25.38;13.25;;;;;;;;;;5070343;28;20024;-71
2022/12/10 01:41:20;;;;;;;25.58;13.32;;;;;;;;;;5070455;28;20606;-70
2022/12/10 01:44:04;;;;;;;24.98;12.95;;;;;;;;;;5070036;28;20021;-71
2022/12/10 01:46:35;;;;;;;26.95;13.48;;;;;;;;;;5070358;28;20113;-70
2022/12/10 01:49:02;;;;;;;;;;;;;;;;;;5070451;28;20040;-71
2022/12/10 01:51:30;;;;;;;23.85;12.93;;;;;;;;;;5070386;28;19947;-71
2022/12/10 01:53:57;;;;;;;22.50;12.40;;;;;;;;;;5070149;28;20036;-72
2022/12/10 01:56:22;;;;;;;24.50;13.20;;;;;;;;;;5070557;28;20056;-71
2022/12/10 01:58:51;;;;;;;22.73;12.55;;;;;;;;;;5069677;28;20373;-70
2022/12/10 02:01:24;;;;;;;22.55;12.95;;;;;;;;;;5069753;28;20032;-70
2022/12/10 02:04:28;;;;;;;23.08;12.73;;;;;;;;;;5069969;28;20029;-71
2022/12/10 02:06:58;;;;;;;23.45;12.73;;;;;;;;;;5066897;28;20039;-69
2022/12/10 02:09:44;;;;;;;21.65;12.90;;;;;;;;;;5068364;28;20403;-70
2022/12/10 02:12:23;;;;;;;22.52;12.95;;;;;;;;;;5069507;28;20507;-69
2022/12/10 02:15:17;;;;;;;25.80;13.50;;;;;;;;;;5069858;28;20017;-71
2022/12/10 02:17:52;;;;;;;26.55;13.75;;;;;;;;;;5067673;28;20496;-70
2022/12/10 02:20:37;;;;;;;24.42;13.43;;;;;;;;;;5069421;28;20028;-71
2022/12/10 02:23:07;;;;;;;24.92;14.02;;;;;;;;;;5069941;28;20047;-73
2022/12/10 02:25:43;;;;;;;25.02;13.20;;;;;;;;;;5069641;28;20034;-71
2022/12/10 02:28:31;;;;;;;24.92;13.73;;;;;;;;;;5070163;28;20064;-71
2022/12/10 02:30:59;;;;;;;23.02;13.00;;;;;;;;;;5069925;28;20025;-74
2022/12/10 02:33:27;;;;;;;25.50;13.10;;;;;;;;;;5068351;28;20039;-73
2022/12/10 02:35:54;;;;;;;23.50;13.18;;;;;;;;;;5069054;28;20041;-74
2022/12/10 02:38:28;;;;;;;23.05;12.98;;;;;;;;;;5069309;28;20032;-72
2022/12/10 02:40:59;;;;;;;25.92;13.32;;;;;;;;;;5068977;28;20134;-73
2022/12/10 02:43:26;;;;;;;24.48;13.05;;;;;;;;;;5069231;28;20075;-73
2022/12/10 02:45:52;;;;;;;25.20;13.35;;;;;;;;;;5069187;28;20024;-74
2022/12/10 02:48:19;;;;;;;20.60;12.10;;;;;;;;;;5069218;28;20020;-74
2022/12/10 02:50:44;;;;;;;23.83;12.50;;;;;;;;;;5069071;28;20021;-72
2022/12/10 02:53:10;;;;;;;20.52;12.23;;;;;;;;;;5069255;28;20077;-73
2022/12/10 02:55:46;;;;;;;22.58;11.73;;;;;;;;;;5068790;28;20024;-69
2022/12/10 02:58:43;;;;;;;18.98;11.48;;;;;;;;;;5068690;28;20035;-70
2022/12/10 03:01:36;;;;;;;20.38;11.05;;;;;;;;;;5064225;28;20040;-71
2022/12/10 03:04:20;;;;;;;18.45;10.85;;;;;;;;;;5069343;28;20060;-70
2022/12/10 03:07:09;;;;;;;20.10;11.00;;;;;;;;;;5069085;28;20039;-70
2022/12/10 03:09:40;;;;;;;17.58;10.98;;;;;;;;;;5068648;28;20484;-71
2022/12/10 03:12:21;;;;;;;20.08;11.10;;;;;;;;;;5068705;28;20029;-70
2022/12/10 03:14:47;;;;;;;18.08;10.30;;;;;;;;;;5068711;28;20056;-71
2022/12/10 03:17:14;;;;;;;18.63;10.55;;;;;;;;;;5067707;28;20056;-71
2022/12/10 03:19:42;;;;;;;17.38;10.80;;;;;;;;;;5068897;28;20488;-71
2022/12/10 03:22:11;;;;;;;21.13;11.25;;;;;;;;;;5068199;28;20040;-70
2022/12/10 03:24:37;;;;;;;18.58;10.52;;;;;;;;;;5068679;28;20028;-71
2022/12/10 03:27:05;;;;;;;20.30;11.18;;;;;;;;;;5068692;28;20028;-70
2022/12/10 03:29:38;;;;;;;19.33;11.02;;;;;;;;;;5068428;28;20029;-70
2022/12/10 03:32:05;;;;;;;19.45;11.05;;;;;;;;;;5068604;28;20035;-70
2022/12/10 03:34:31;;;;;;;19.08;11.32;;;;;;;;;;5068581;28;20561;-71
2022/12/10 03:36:58;;;;;;;19.05;11.00;;;;;;;;;;5068583;28;20029;-70
2022/12/10 03:39:23;;;;;;;19.80;11.05;;;;;;;;;;5068601;28;20083;-70
2022/12/10 03:41:49;;;;;;;18.60;10.63;;;;;;;;;;5068339;28;20041;-73
2022/12/10 03:44:27;;;;;;;19.33;10.77;;;;;;;;;;5068528;28;20057;-73
2022/12/10 03:46:52;;;;;;;21.65;11.57;;;;;;;;;;5068451;28;20082;-74
2022/12/10 03:49:17;;;;;;;21.25;11.77;;;;;;;;;;5068250;28;20029;-73
2022/12/10 03:51:43;;;;;;;18.08;10.70;;;;;;;;;;5068279;28;20056;-70
2022/12/10 03:54:08;;;;;;;20.95;11.45;;;;;;;;;;5068434;28;20024;-70
2022/12/10 03:56:33;;;;;;;19.73;10.70;;;;;;;;;;5068544;28;20104;-70
2022/12/10 03:58:59;;;;;;;19.52;11.10;;;;;;;;;;5071903;28;20082;-70
2022/12/10 04:01:24;;;;;;;21.52;11.10;;;;;;;;;;5072162;28;20060;-70
2022/12/10 04:03:50;;;;;;;19.92;11.23;;;;;;;;;;5072245;28;20029;-70
2022/12/10 04:06:18;;;;;;;23.70;11.50;;;;;;;;;;5072067;28;20494;-70
2022/12/10 04:08:44;;;;;;;19.50;11.20;;;;;;;;;;5072203;28;20107;-71
2022/12/10 04:11:12;;;;;;;19.58;10.60;;;;;;;;;;5071803;28;20035;-73
2022/12/10 04:16:29;;;;;;;21.13;11.35;;;;;;;;;;5072340;28;20043;-71
2022/12/10 04:19:01;;;;;;;23.05;11.30;;;;;;;;;;5070998;28;20223;-70
2022/12/10 04:27:01;;;;;;;20.92;9.77;;;;;;;;;;5071482;28;20499;-71
2022/12/10 04:29:29;;;;;;;18.42;10.05;;;;;;;;;;5071493;28;20052;-70
2022/12/10 04:31:56;;;;;;;16.35;9.63;;;;;;;;;;5071970;28;20037;-70
2022/12/10 04:34:22;;;;;;;18.55;9.70;;;;;;;;;;5070510;28;20052;-71
2022/12/10 04:36:48;;;;;;;17.33;9.52;;;;;;;;;;5071570;28;20503;-71
2022/12/10 04:39:14;;;;;;;17.83;9.55;;;;;;;;;;5071755;28;20028;-71
2022/12/10 04:41:41;;;;;;;17.85;9.73;;;;;;;;;;5071177;28;20416;-72
2022/12/10 04:44:07;;;;;;;18.98;9.95;;;;;;;;;;5069940;28;20037;-70
2022/12/10 04:46:33;;;;;;;17.27;9.50;;;;;;;;;;5071619;28;20029;-71
2022/12/10 04:48:58;;;;;;;15.63;9.00;;;;;;;;;;5070260;28;20086;-71
2022/12/10 04:51:24;;;;;;;16.73;9.50;;;;;;;;;;5071129;28;20181;-70
2022/12/10 04:53:49;;;;;;;14.90;9.05;;;;;;;;;;5071562;28;20094;-70
2022/12/10 04:56:15;;;;;;;16.70;9.35;;;;;;;;;;5069859;28;20032;-70
2022/12/10 04:58:40;;;;;;;17.58;8.82;;;;;;;;;;5071061;28;20033;-70
2022/12/10 05:01:08;;;;;;;16.40;9.00;;;;;;;;;;5071107;28;20442;-70
2022/12/10 05:03:35;;;;;;;18.55;9.23;;;;;;;;;;5071029;28;20067;-71
2022/12/10 05:06:06;;;;;;;15.98;8.88;;;;;;;;;;5071215;28;20028;-73
2022/12/10 05:08:34;;;;;;;17.38;8.70;;;;;;;;;;5070321;28;20024;-73
2022/12/10 05:11:05;;;;;;;15.93;8.45;;;;;;;;;;5070765;28;20108;-73
2022/12/10 05:13:30;;;;;;;15.73;8.45;;;;;;;;;;5070611;28;20060;-73
2022/12/10 05:15:56;;;;;;;14.68;8.25;;;;;;;;;;5070906;28;20071;-73
2022/12/10 05:18:21;;;;;;;16.75;8.50;;;;;;;;;;5070879;28;20133;-74
2022/12/10 05:20:47;;;;;;;14.57;8.60;;;;;;;;;;5070581;28;20036;-73
2022/12/10 05:23:28;;;;;;;16.23;8.65;;;;;;;;;;5070570;28;20024;-74
2022/12/10 05:26:13;;;;;;;16.55;8.25;;;;;;;;;;5071287;28;20035;-73
2022/12/10 05:28:44;;;;;;;15.55;7.97;;;;;;;;;;5070623;28;20032;-74
2022/12/10 05:31:13;;;;;;;17.02;9.35;;;;;;;;;;5070673;28;20518;-75
2022/12/10 05:33:39;;;;;;;16.83;9.05;;;;;;;;;;5070304;28;20393;-74
2022/12/10 05:36:05;;;;;;;16.80;9.10;;;;;;;;;;5070465;28;20567;-74
2022/12/10 05:38:32;;;;;;;16.40;8.23;;;;;;;;;;5070270;28;20029;-73
2022/12/10 05:41:05;;;;;;;14.18;8.02;;;;;;;;;;5070397;28;20063;-71
2022/12/10 05:43:31;;;;;;;16.33;8.85;;;;;;;;;;5070096;28;20025;-70
2022/12/10 05:46:02;;;;;;;17.85;8.63;;;;;;;;;;5070528;28;20050;-70
2022/12/10 05:48:27;;;;;;;16.27;8.40;;;;;;;;;;5070178;28;20028;-69
2022/12/10 05:50:53;;;;;;;13.27;7.85;;;;;;;;;;5070158;28;20377;-70
2022/12/10 05:53:18;;;;;;;14.93;8.52;;;;;;;;;;5070251;28;20017;-70
2022/12/10 05:55:44;;;;;;;17.33;8.20;;;;;;;;;;5070368;28;20020;-69
2022/12/10 05:58:10;;;;;;;15.05;8.50;;;;;;;;;;5069691;28;20032;-71
2022/12/10 06:00:39;;;;;;;15.93;8.05;;;;;;;;;;5070017;28;20047;-71
2022/12/10 06:03:04;;;;;;;16.42;8.10;;;;;;;;;;5069957;28;20040;-71
2022/12/10 06:05:29;;;;;;;16.05;8.10;;;;;;;;;;5070099;28;20021;-69
2022/12/10 06:07:55;;;;;;;15.02;7.88;;;;;;;;;;5069927;28;20537;-71
2022/12/10 06:10:20;;;;;;;15.70;8.20;;;;;;;;;;5069762;28;20464;-69
2022/12/10 06:12:45;;;;;;;13.68;8.07;;;;;;;;;;5069408;28;20028;-69
2022/12/10 06:15:11;;;;;;;15.48;8.40;;;;;;;;;;5069884;28;20799;-70
2022/12/10 06:17:36;;;;;;;15.02;8.07;;;;;;;;;;5069652;28;20032;-70
2022/12/10 06:20:02;;;;;;;17.95;8.27;;;;;;;;;;5069403;28;20035;-71
2022/12/10 06:22:27;;;;;;;16.27;8.10;;;;;;;;;;5069589;28;20028;-70
2022/12/10 06:24:53;;;;;;;17.25;8.52;;;;;;;;;;5069669;28;20472;-72
2022/12/10 06:27:18;;;;;;;17.95;8.65;;;;;;;;;;5069101;28;20025;-74
2022/12/10 06:29:44;;;;;;;16.67;8.70;;;;;;;;;;5069792;28;20031;-74
2022/12/10 06:32:09;;;;;;;15.95;8.77;;;;;;;;;;5069274;28;20040;-74
2022/12/10 06:34:35;;;;;;;17.00;9.48;;;;;;;;;;5069466;28;20049;-70
2022/12/10 06:37:00;;;;;;;15.77;8.45;;;;;;;;;;5069520;28;20103;-70
2022/12/10 06:39:25;;;;;;;15.82;8.65;;;;;;;;;;5069242;28;20132;-70
2022/12/10 06:41:51;;;;;;;16.67;9.00;;;;;;;;;;5069126;28;20036;-70
2022/12/10 06:44:16;;;;;;;18.80;9.48;;;;;;;;;;5068888;28;20054;-70
2022/12/10 06:46:42;;;;;;;18.85;9.30;;;;;;;;;;5069531;28;20033;-70
2022/12/10 06:49:08;;;;;;;16.95;9.13;;;;;;;;;;5069138;28;20075;-73
2022/12/10 06:51:33;;;;;;;19.20;9.57;;;;;;;;;;5069311;28;20459;-73
2022/12/10 06:53:59;;;;;;;16.92;9.13;;;;;;;;;;5069079;28;20082;-74
2022/12/10 06:56:25;;;;;;;16.42;8.85;;;;;;;;;;5069334;28;20037;-73
2022/12/10 06:58:50;;;;;;;19.00;9.30;;;;;;;;;;5068368;28;20032;-74
2022/12/10 07:01:30;;;;;;;19.48;9.38;;;;;;;;;;5068652;28;20119;-71
2022/12/10 07:03:56;;;;;;;16.77;8.90;;;;;;;;;;5068893;28;20513;-72
2022/12/10 07:06:23;;;;;;;14.75;8.30;;;;;;;;;;5069276;28;20021;-72
2022/12/10 07:08:49;;;;;;;16.48;8.75;;;;;;;;;;5068844;28;20068;-73
2022/12/10 07:11:18;;;;;;;15.85;7.95;;;;;;;;;;5069044;28;20044;-70
2022/12/10 07:13:43;;;;;;;17.35;8.10;;;;;;;;;;5068558;28;20563;-70
2022/12/10 07:16:23;;;;;;;17.00;8.57;;;;;;;;;;5068803;28;20056;-70
2022/12/10 07:18:50;;;;;;;15.70;8.23;;;;;;;;;;5068487;28;20107;-70
2022/12/10 07:21:23;;;;;;;16.65;8.18;;;;;;;;;;5068910;28;20071;-70
2022/12/10 07:23:50;;;;;;;15.65;8.02;;;;;;;;;;5068672;28;20027;-71
2022/12/10 07:26:16;;;;;;;15.50;7.78;;;;;;;;;;5068938;28;20036;-71
2022/12/10 07:28:41;;;;;;;14.68;7.78;;;;;;;;;;5068375;28;20021;-71
2022/12/10 07:31:08;;;;;;;13.20;7.65;;;;;;;;;;5068700;28;20021;-71
2022/12/10 07:33:34;;;;;;;15.00;7.80;;;;;;;;;;5071746;28;20578;-70
2022/12/10 07:36:07;;;;;;;14.63;7.63;;;;;;;;;;5072638;28;20049;-71
2022/12/10 07:38:33;;;;;;;15.00;7.90;;;;;;;;;;5072497;28;20106;-71
2022/12/10 07:41:03;;;;;;;16.17;7.72;;;;;;;;;;5072662;28;20060;-70
2022/12/10 07:43:28;;;;;;;16.55;8.73;;;;;;;;;;5072276;28;20028;-70
2022/12/10 07:45:53;;;;;;;15.93;8.10;;;;;;;;;;5072867;28;20028;-71
2022/12/10 07:48:19;;;;;;;15.15;8.00;;;;;;;;;;5072723;28;20437;-70
2022/12/10 07:50:44;;;;;;;15.77;8.00;;;;;;;;;;5072385;28;20032;-75
2022/12/10 07:53:10;;;;;;;15.63;7.68;;;;;;;;;;5072197;28;20016;-74
2022/12/10 07:55:35;;;;;;;12.70;6.95;;;;;;;;;;5072640;28;20078;-74
2022/12/10 07:58:00;;;;;;;14.23;7.00;;;;;;;;;;5072136;28;20020;-74
2022/12/10 08:00:26;;;;;;;11.35;6.72;;;;;;;;;;5072165;28;20035;-71
2022/12/10 08:02:51;;;;;;;12.15;6.88;;;;;;;;;;5071148;28;20028;-70
2022/12/10 08:05:16;;;;;;;13.45;7.10;;;;;;;;;;5072318;28;20111;-71
2022/12/10 08:07:42;;;;;;;12.60;6.63;;;;;;;;;;5072360;28;20035;-70
2022/12/10 08:10:07;;;;;;;13.13;7.40;;;;;;;;;;5072014;28;20040;-70
2022/12/10 08:12:33;;;;;;;13.18;7.30;;;;;;;;;;5071583;28;20476;-71
2022/12/10 08:14:58;;;;;;;13.68;7.68;;;;;;;;;;5072078;28;20024;-71
2022/12/10 08:17:23;;;;;;;14.93;7.50;;;;;;;;;;5072250;28;20453;-71
2022/12/10 08:19:50;;;;;;;12.35;7.07;;;;;;;;;;5072090;28;20032;-71
2022/12/10 08:22:16;;;;;;;14.23;7.70;;;;;;;;;;5072107;28;20112;-70
2022/12/10 08:24:41;;;;;;;16.40;8.32;;;;;;;;;;5072029;28;20103;-72
2022/12/10 08:27:06;;;;;;;16.85;8.30;;;;;;;;;;5071075;28;20017;-70
2022/12/10 08:29:32;;;;;;;13.13;8.40;;;;;;;;;;5071601;28;20028;-71
2022/12/10 08:31:57;;;;;;;27.20;8.23;;;;;;;;;;5071681;28;20024;-70
2022/12/10 08:34:23;;;;;;;13.80;7.72;;;;;;;;;;5071503;28;20387;-70
2022/12/10 08:36:48;;;;;;;14.55;8.15;;;;;;;;;;5071853;28;20025;-72
2022/12/10 08:39:16;;;;;;;15.80;8.40;;;;;;;;;;5071487;28;20025;-71
2022/12/10 08:41:43;;;;;;;15.40;7.90;;;;;;;;;;5071652;28;20039;-70
2022/12/10 08:44:09;;;;;;;14.65;7.97;;;;;;;;;;5070691;28;20046;-71
2022/12/10 08:46:34;;;;;;;15.60;8.18;;;;;;;;;;5071557;28;20024;-71
2022/12/10 08:48:59;;;;;;;15.20;7.93;;;;;;;;;;5071220;28;20396;-71
2022/12/10 08:51:25;;;;;;;13.48;7.50;;;;;;;;;;5071260;28;20021;-70
2022/12/10 08:53:50;;;;;;;14.13;7.65;;;;;;;;;;5071284;28;20032;-70
2022/12/10 08:56:16;;;;;;;15.75;7.40;;;;;;;;;;5071061;28;20052;-71
2022/12/10 08:58:42;;;;;;;13.02;7.30;;;;;;;;;;5071095;28;20031;-70
2022/12/10 09:01:09;;;;;;;13.18;7.50;;;;;;;;;;5070897;28;20040;-70
2022/12/10 09:03:37;;;;;;;13.80;6.90;;;;;;;;;;5071206;28;20086;-70
2022/12/10 09:06:05;;;;;;;12.68;7.03;;;;;;;;;;5071236;28;20021;-70
2022/12/10 09:08:30;;;;;;;10.82;6.90;;;;;;;;;;5071275;28;20029;-70
2022/12/10 09:10:55;;;;;;;13.77;7.68;;;;;;;;;;5070757;28;20085;-71
2022/12/10 09:13:21;;;;;;;13.77;6.88;;;;;;;;;;5071033;28;20032;-71
2022/12/10 09:15:52;;;;;;;12.77;7.00;;;;;;;;;;5070808;28;20020;-70
2022/12/10 09:18:18;;;;;;;11.07;6.90;;;;;;;;;;5071009;28;20063;-70
2022/12/10 09:20:44;;;;;;;12.10;7.10;;;;;;;;;;5070677;28;20032;-73
2022/12/10 09:23:09;;;;;;;12.23;7.03;;;;;;;;;;5070792;28;20024;-71
2022/12/10 09:25:35;;;;;;;12.30;7.10;;;;;;;;;;5070693;28;20025;-73
2022/12/10 09:28:00;;;;;;;11.32;6.70;;;;;;;;;;5070625;28;20053;-76
2022/12/10 09:30:25;;;;;;;12.10;7.03;;;;;;;;;;5070797;28;20045;-80
2022/12/10 09:32:51;;;;;;;11.02;6.22;;;;;;;;;;5072534;28;20020;-82
2022/12/10 09:35:16;;;;;;;11.30;6.63;;;;;;;;;;5071467;28;20427;-75
2022/12/10 09:37:42;;;;;;;11.10;6.35;;;;;;;;;;5071073;28;20036;-74
2022/12/10 09:40:14;;;;;;;12.27;6.53;;;;;;;;;;5070597;28;20036;-73
2022/12/10 09:42:48;;;;;;;14.00;6.30;;;;;;;;;;5070756;28;20032;-77
2022/12/10 09:45:39;;;;;;;12.95;6.72;;;;;;;;;;5070926;28;20032;-79
2022/12/10 09:48:38;;;;;;;12.35;6.32;;;;;;;;;;5070646;28;20032;-75
2022/12/10 09:51:21;;;;;;;11.98;6.45;;;;;;;;;;5070126;28;20024;-77
2022/12/10 09:53:48;;;;;;;9.60;6.03;;;;;;;;;;5070270;28;20040;-77
2022/12/10 09:56:22;;;;;;;14.05;6.97;;;;;;;;;;5069199;28;20562;-77
2022/12/10 09:58:48;;;;;;;12.48;6.07;;;;;;;;;;5069792;28;20039;-77
2022/12/10 10:01:16;;;;;;;12.50;6.55;;;;;;;;;;5069898;28;20037;-74
2022/12/10 10:03:42;;;;;;;13.07;6.82;;;;;;;;;;5070746;28;20493;-75
2022/12/10 10:06:11;;;;;;;9.68;5.95;;;;;;;;;;5068669;28;20082;-75
2022/12/10 10:08:45;;;;;;;13.43;6.75;;;;;;;;;;5070018;28;20024;-74
2022/12/10 10:11:27;;;;;;;11.63;6.90;;;;;;;;;;5069167;28;20060;-73
2022/12/10 10:13:57;;;;;;;14.23;5.80;;;;;;;;;;5068962;28;20111;-72
2022/12/10 10:16:33;;;;;;;12.25;6.13;;;;;;;;;;5070173;28;20024;-73
2022/12/10 10:19:05;;;;;;;10.38;5.85;;;;;;;;;;5072139;28;20036;-75
2022/12/10 10:21:36;;;;;;;11.13;6.22;;;;;;;;;;5078103;28;20120;-72
2022/12/10 10:24:03;;;;;;;10.02;5.88;;;;;;;;;;5074110;28;20028;-72
2022/12/10 10:26:29;;;;;;;13.70;6.60;;;;;;;;;;5071599;28;20029;-75
2022/12/10 10:28:59;;;;;;;9.85;6.15;;;;;;;;;;5072080;28;20033;-74
2022/12/10 10:31:27;;;;;;;11.52;5.72;;;;;;;;;;5070881;28;20021;-76
2022/12/10 10:34:16;;;;;;;9.27;5.95;;;;;;;;;;5072838;28;20112;-76
2022/12/10 10:36:42;;;;;;;12.55;6.25;;;;;;;;;;5070928;28;20040;-87
2022/12/10 10:39:31;;;;;;;10.73;6.15;;;;;;;;;;5072701;28;20032;-82
2022/12/10 10:41:59;;;;;;;10.52;6.30;;;;;;;;;;5042120;28;20741;-76
2022/12/10 10:44:28;;;;;;;11.63;6.30;;;;;;;;;;5049282;28;20025;-76
2022/12/10 10:46:55;;;;;;;10.18;6.20;;;;;;;;;;5050512;28;20075;-78
2022/12/10 10:49:36;;;;;;;12.43;6.18;;;;;;;;;;5052675;28;20021;-72
2022/12/10 10:52:15;;;;;;;11.20;6.10;;;;;;;;;;5057773;28;20096;-75
2022/12/10 10:54:42;;;;;;;11.50;5.75;;;;;;;;;;5058330;28;20380;-73
2022/12/10 10:57:20;;;;;;;11.57;6.18;;;;;;;;;;5060083;28;20029;-72
2022/12/10 10:59:46;;;;;;;10.50;5.95;;;;;;;;;;5055405;28;20032;-73
2022/12/10 11:02:24;;;;;;;12.80;6.10;;;;;;;;;;5058058;28;20044;-75
2022/12/10 11:04:55;;;;;;;9.80;5.63;;;;;;;;;;5048955;28;20029;-72
2022/12/10 11:07:30;;;;;;;10.98;5.97;;;;;;;;;;5051159;28;20036;-74
2022/12/10 11:09:55;;;;;;;9.68;5.93;;;;;;;;;;5049035;28;20028;-71
2022/12/10 11:12:37;;;;;;;10.30;5.50;;;;;;;;;;5063397;28;20047;-68
2022/12/10 11:15:22;;;;;;;10.32;5.95;;;;;;;;;;5069105;28;20028;-69
2022/12/10 11:17:50;;;;;;;12.00;6.03;;;;;;;;;;5069335;28;20028;-74
2022/12/10 11:20:22;;;;;;;10.57;6.00;;;;;;;;;;5067071;28;20040;-72
2022/12/10 11:23:12;;;;;;;11.60;5.65;;;;;;;;;;5067853;28;20052;-72
2022/12/10 11:25:52;;;;;;;12.13;5.80;;;;;;;;;;5060846;28;20123;-73
2022/12/10 11:28:45;;;;;;;10.23;5.63;;;;;;;;;;5066966;28;20104;-72
2022/12/10 11:31:22;;;;;;;9.60;5.43;;;;;;;;;;5066986;28;20036;-73
2022/12/10 11:34:07;;;;;;;10.27;5.90;;;;;;;;;;5066884;28;20032;-72
2022/12/10 11:36:39;;;;;;;11.02;5.90;;;;;;;;;;5067252;28;20048;-72
2022/12/10 11:39:10;;;;;;;9.80;5.63;;;;;;;;;;5067610;28;20105;-72
2022/12/10 11:41:38;;;;;;;12.15;6.05;;;;;;;;;;5068465;28;20040;-72
2022/12/10 11:44:29;;;;;;;9.20;5.40;;;;;;;;;;5068136;28;20020;-71
2022/12/10 11:47:13;;;;;;;;;;;;;;;;;;5068971;28;20040;-71
2022/12/10 11:49:59;;;;;;;9.43;4.93;;;;;;;;;;5068722;28;19962;-72
2022/12/10 11:52:51;;;;;;;10.98;5.07;;;;;;;;;;5066945;28;20484;-72
2022/12/10 11:55:45;;;;;;;9.68;5.32;;;;;;;;;;5067376;28;20029;-71
2022/12/10 11:58:42;;;;;;;10.25;4.63;;;;;;;;;;5068092;28;20066;-73
2022/12/10 12:01:22;;;;;;;10.30;5.60;;;;;;;;;;5053247;28;20036;-77
2022/12/10 12:04:02;;;;;;;12.52;5.53;;;;;;;;;;5068128;28;20021;-77
2022/12/10 12:07:00;;;;;;;11.95;6.07;;;;;;;;;;5068345;28;20032;-72
2022/12/10 12:09:43;;;;;;;9.40;5.35;;;;;;;;;;5068352;28;20501;-71
2022/12/10 12:12:28;;;;;;;11.40;6.32;;;;;;;;;;5067692;28;20078;-71
2022/12/10 12:15:22;;;;;;;9.68;5.50;;;;;;;;;;5068329;28;20043;-72
2022/12/10 12:18:04;;;;;;;10.30;5.85;;;;;;;;;;5060220;28;20678;-75
2022/12/10 12:20:34;;;;;;;10.65;5.90;;;;;;;;;;5072011;28;20426;-77
2022/12/10 12:23:12;;;;;;;10.63;5.47;;;;;;;;;;5071824;28;20031;-78
2022/12/10 12:25:42;;;;;;;9.18;5.07;;;;;;;;;;5072323;28;20058;-76
2022/12/10 12:28:19;;;;;;;11.27;5.67;;;;;;;;;;5071431;28;20078;-77
2022/12/10 12:30:49;;;;;;;8.15;4.43;;;;;;;;;;5071870;28;20042;-75
2022/12/10 12:33:34;;;;;;;8.45;4.97;;;;;;;;;;5072164;28;20312;-76
2022/12/10 12:36:09;;;;;;;9.45;5.18;;;;;;;;;;5071572;28;20056;-73
2022/12/10 12:38:45;;;;;;;8.63;5.25;;;;;;;;;;5071575;28;20021;-76
2022/12/10 12:41:24;;;;;;;9.55;4.95;;;;;;;;;;5071713;28;20069;-76
2022/12/10 12:43:59;;;;;;;8.93;4.82;;;;;;;;;;5071352;28;20032;-76
2022/12/10 12:46:36;;;;;;;8.65;5.00;;;;;;;;;;5071413;28;20024;-76
2022/12/10 12:49:29;;;;;;;7.90;4.90;;;;;;;;;;5070100;28;20112;-76
2022/12/10 12:52:36;;;;;;;9.75;5.03;;;;;;;;;;5071210;28;20694;-76
2022/12/10 12:55:09;;;;;;;7.30;4.63;;;;;;;;;;5069979;28;20029;-77
2022/12/10 12:57:49;;;;;;;8.77;4.70;;;;;;;;;;5070987;28;20103;-77
2022/12/10 13:00:21;;;;;;;8.43;5.20;;;;;;;;;;5071772;28;20060;-77
2022/12/10 13:03:08;;;;;;;8.15;4.63;;;;;;;;;;5071000;28;20025;-71
2022/12/10 13:05:38;;;;;;;9.80;4.97;;;;;;;;;;5071204;28;20141;-76
2022/12/10 13:08:19;;;;;;;10.90;5.10;;;;;;;;;;5070826;28;20077;-72
2022/12/10 13:10:53;;;;;;;8.15;4.57;;;;;;;;;;5070942;28;20024;-77
2022/12/10 13:13:24;;;;;;;8.75;4.88;;;;;;;;;;5070698;28;20025;-77
2022/12/10 13:15:50;;;;;;;7.55;4.05;;;;;;;;;;5071417;28;20032;-71
2022/12/10 13:18:18;;;;;;;7.63;4.18;;;;;;;;;;5071082;28;20033;-72
2022/12/10 13:21:01;;;;;;;8.00;4.38;;;;;;;;;;5071029;28;20543;-73
2022/12/10 13:23:31;;;;;;;8.85;5.38;;;;;;;;;;5070450;28;20051;-77
2022/12/10 13:25:59;;;;;;;7.38;4.18;;;;;;;;;;5070845;28;20546;-77
2022/12/10 13:28:50;;;;;;;8.73;4.45;;;;;;;;;;5070374;28;20036;-72
2022/12/10 13:31:16;;;;;;;9.65;5.15;;;;;;;;;;5070019;28;20048;-73
2022/12/10 13:33:59;;;;;;;10.02;4.78;;;;;;;;;;5069127;28;20059;-73
2022/12/10 13:36:33;;;;;;;9.63;4.72;;;;;;;;;;5070624;28;20658;-73
2022/12/10 13:39:04;;;;;;;9.15;4.97;;;;;;;;;;5070415;28;20056;-74
2022/12/10 13:44:47;;;;;;;8.52;4.80;;;;;;;;;;5070179;28;20495;-72
2022/12/10 13:47:12;;;;;;;8.05;4.90;;;;;;;;;;5066510;28;20037;-73
2022/12/10 13:49:58;;;;;;;8.18;4.85;;;;;;;;;;5070642;28;20027;-76
2022/12/10 13:52:37;;;;;;;9.57;5.30;;;;;;;;;;5070226;28;20393;-77
2022/12/10 13:55:21;;;;;;;9.10;5.30;;;;;;;;;;5070157;28;20082;-72
2022/12/10 13:58:03;;;;;;;9.68;4.90;;;;;;;;;;5069643;28;20463;-77
2022/12/10 14:00:53;;;;;;;9.10;4.68;;;;;;;;;;5070460;28;20028;-71
2022/12/10 14:03:36;;;;;;;9.73;5.47;;;;;;;;;;5070016;28;20024;-75
2022/12/10 14:06:17;;;;;;;10.30;5.63;;;;;;;;;;5070121;28;20094;-76
2022/12/10 14:09:06;;;;;;;9.35;5.20;;;;;;;;;;5069984;28;20028;-74
2022/12/10 14:11:36;;;;;;;10.65;5.70;;;;;;;;;;5070213;28;20036;-77
2022/12/10 14:14:03;;;;;;;11.50;5.38;;;;;;;;;;5074792;28;20070;-73
2022/12/10 14:16:32;;;;;;;10.32;6.10;;;;;;;;;;5069777;28;20103;-76
2022/12/10 14:19:05;;;;;;;11.52;5.80;;;;;;;;;;5071583;28;20024;-75
2022/12/10 14:21:36;;;;;;;13.00;7.00;;;;;;;;;;5069958;28;20060;-76
2022/12/10 14:24:02;;;;;;;11.35;6.13;;;;;;;;;;5068494;28;20033;-73
2022/12/10 14:26:29;;;;;;;10.07;5.75;;;;;;;;;;5068267;28;20031;-74
2022/12/10 14:28:56;;;;;;;11.43;6.00;;;;;;;;;;5069338;28;20047;-74
2022/12/10 14:31:33;;;;;;;9.80;5.90;;;;;;;;;;5074515;28;20262;-77
2022/12/10 14:34:12;;;;;;;11.95;6.18;;;;;;;;;;5070497;28;20028;-71
2022/12/10 14:36:44;;;;;;;14.77;5.93;;;;;;;;;;5074157;28;20029;-71
2022/12/10 14:39:21;;;;;;;9.77;6.13;;;;;;;;;;5071943;28;20366;-73
2022/12/10 14:41:50;;;;;;;11.00;5.80;;;;;;;;;;5080847;28;20028;-68
2022/12/10 14:44:18;;;;;;;10.73;6.22;;;;;;;;;;5080620;28;20016;-71
2022/12/10 14:46:46;;;;;;;11.02;5.70;;;;;;;;;;5078044;28;20078;-82
2022/12/10 14:49:26;;;;;;;10.82;6.13;;;;;;;;;;5069267;28;20116;-74
2022/12/10 14:51:51;;;;;;;12.80;6.37;;;;;;;;;;5069442;28;20102;-75
2022/12/10 14:54:29;;;;;;;10.73;6.18;;;;;;;;;;5068750;28;20028;-72
2022/12/10 14:56:56;;;;;;;10.73;5.90;;;;;;;;;;5069585;28;20016;-74
2022/12/10 14:59:30;;;;;;;9.95;5.55;;;;;;;;;;5068640;28;20032;-75
2022/12/10 15:01:59;;;;;;;9.60;5.80;;;;;;;;;;5072219;28;20304;-74